createdAt,value
2023-03-10T00:01:24.837Z,88.27
2023-03-10T00:03:57.251Z,82.20
2023-03-10T00:06:29.411Z,104.43
2023-03-10T00:08:59.780Z,83.93
2023-03-10T00:11:28.433Z,97.00
2023-03-10T00:13:57.499Z,121.33
2023-03-10T00:16:28.575Z,91.37
2023-03-10T00:18:58.875Z,94.67
2023-03-10T00:21:29.891Z,98.37
2023-03-10T00:23:58.795Z,110.90
2023-03-10T00:26:29.420Z,84.30
2023-03-10T00:28:57.989Z,108.17
2023-03-10T00:31:28.714Z,149.77
2023-03-10T00:33:59.279Z,116.73
2023-03-10T00:36:29.815Z,90.03
2023-03-10T00:39:01.057Z,91.57
2023-03-10T00:41:32.239Z,109.30
2023-03-10T00:44:01.966Z,92.10
2023-03-10T00:46:33.232Z,82.03
2023-03-10T00:49:03.597Z,78.97
2023-03-10T00:51:32.180Z,100.93
2023-03-10T00:54:02.461Z,95.30
2023-03-10T00:56:31.752Z,91.57
2023-03-10T00:59:02.029Z,117.23
2023-03-10T01:01:33.928Z,91.80
2023-03-10T01:04:07.081Z,96.47
2023-03-10T01:06:36.794Z,104.87
2023-03-10T01:09:06.789Z,104.10
2023-03-10T01:11:35.530Z,73.33
2023-03-10T01:14:08.283Z,87.27
2023-03-10T01:16:36.889Z,66.90
2023-03-10T01:19:06.786Z,72.17
2023-03-10T01:21:39.373Z,67.47
2023-03-10T01:24:09.222Z,90.03
2023-03-10T01:26:37.779Z,68.40
2023-03-10T01:29:07.783Z,114.67
2023-03-10T01:31:36.331Z,98.90
2023-03-10T01:34:06.394Z,81.83
2023-03-10T01:36:34.925Z,117.53
2023-03-10T01:39:03.899Z,106.10
2023-03-10T01:41:32.496Z,85.63
2023-03-10T01:44:03.151Z,104.23
2023-03-10T01:46:49.285Z,109.00
2023-03-10T01:49:40.950Z,106.53
2023-03-10T01:52:16.304Z,138.97
2023-03-10T01:54:54.431Z,81.57
2023-03-10T01:57:27.971Z,123.73
2023-03-10T01:59:58.480Z,91.80
2023-03-10T02:02:29.100Z,103.53
2023-03-10T02:04:59.590Z,114.33
2023-03-10T02:07:34.427Z,122.03
2023-03-10T02:10:05.197Z,165.60
2023-03-10T02:12:33.686Z,117.67
2023-03-10T02:15:02.210Z,91.10
2023-03-10T02:17:30.935Z,102.33
2023-03-10T02:20:21.405Z,101.93
2023-03-10T02:22:50.053Z,99.63
2023-03-10T02:25:34.330Z,85.27
2023-03-10T02:28:04.936Z,145.40
2023-03-10T02:30:38.783Z,125.10
2023-03-10T02:33:13.636Z,143.17
2023-03-10T02:35:42.505Z,121.97
2023-03-10T02:38:14.723Z,123.53
2023-03-10T02:40:48.150Z,111.50
2023-03-10T02:43:26.718Z,106.43
2023-03-10T02:46:03.810Z,106.70
2023-03-10T02:48:35.680Z,116.07
2023-03-10T02:51:12.321Z,126.23
2023-03-10T02:53:42.386Z,103.87
2023-03-10T02:56:11.736Z,87.20
2023-03-10T02:58:44.717Z,112.43
2023-03-10T03:01:13.274Z,120.83
2023-03-10T03:03:43.501Z,107.93
2023-03-10T03:06:13.942Z,102.40
2023-03-10T03:08:42.812Z,120.43
2023-03-10T03:11:15.712Z,101.90
2023-03-10T03:13:45.924Z,102.63
2023-03-10T03:16:15.683Z,88.13
2023-03-10T03:18:46.132Z,112.97
2023-03-10T03:21:17.581Z,104.37
2023-03-10T03:23:48.369Z,120.33
2023-03-10T03:26:21.851Z,110.93
2023-03-10T03:28:54.271Z,104.40
2023-03-10T03:31:27.383Z,128.87
2023-03-10T03:34:05.726Z,106.73
2023-03-10T03:36:34.540Z,101.83
2023-03-10T03:39:03.280Z,129.90
2023-03-10T03:41:33.626Z,122.10
2023-03-10T03:44:03.667Z,121.47
2023-03-10T03:46:33.987Z,130.00
2023-03-10T03:49:02.999Z,134.23
2023-03-10T03:51:32.426Z,132.60
2023-03-10T03:54:01.360Z,154.93
2023-03-10T03:56:30.848Z,138.97
2023-03-10T03:59:00.187Z,155.57
2023-03-10T04:01:30.265Z,121.00
2023-03-10T04:04:00.579Z,127.00
2023-03-10T04:06:29.147Z,77.67
2023-03-10T04:08:57.922Z,149.23
2023-03-10T04:11:28.728Z,173.57
2023-03-10T04:13:57.748Z,144.63
2023-03-10T04:16:26.998Z,176.73
2023-03-10T04:18:56.843Z,150.40
2023-03-10T04:21:26.249Z,134.90
2023-03-10T04:23:57.048Z,152.37
2023-03-10T04:26:28.829Z,151.73
2023-03-10T04:28:58.782Z,161.83
2023-03-10T04:31:29.564Z,133.80
2023-03-10T04:34:01.438Z,126.90
2023-03-10T04:36:30.327Z,133.20
2023-03-10T04:39:01.634Z,128.80
2023-03-10T04:41:32.851Z,144.33
2023-03-10T04:44:01.550Z,125.07
2023-03-10T04:46:31.995Z,123.67
2023-03-10T04:49:02.498Z,160.53
2023-03-10T04:51:31.464Z,135.43
2023-03-10T04:54:00.393Z,141.57
2023-03-10T04:56:31.996Z,156.47
2023-03-10T04:59:00.513Z,208.50
2023-03-10T05:01:33.299Z,210.03
2023-03-10T05:04:07.445Z,169.73
2023-03-10T05:06:36.572Z,146.37
2023-03-10T05:09:28.434Z,167.70
2023-03-10T05:11:56.738Z,227.57
2023-03-10T05:14:31.584Z,171.20
2023-03-10T05:17:00.102Z,168.57
2023-03-10T05:19:30.705Z,177.13
2023-03-10T05:22:01.462Z,170.93
2023-03-10T05:24:30.944Z,173.13
2023-03-10T05:27:02.432Z,168.77
2023-03-10T05:29:31.141Z,162.63
2023-03-10T05:32:08.280Z,158.60
2023-03-10T05:34:41.446Z,139.83
2023-03-10T05:37:10.059Z,160.10
2023-03-10T05:39:38.498Z,122.23
2023-03-10T05:42:12.527Z,130.53
2023-03-10T05:44:42.303Z,122.20
2023-03-10T05:47:10.742Z,166.77
2023-03-10T05:49:40.888Z,156.63
2023-03-10T05:52:10.007Z,156.27
2023-03-10T05:54:40.179Z,169.57
2023-03-10T05:57:08.666Z,157.43
2023-03-10T05:59:37.482Z,118.90
2023-03-10T06:02:05.948Z,139.80
2023-03-10T06:04:34.322Z,122.63
2023-03-10T06:07:05.790Z,112.13
2023-03-10T06:09:34.436Z,116.57
2023-03-10T06:12:02.768Z,159.17
2023-03-10T06:14:31.063Z,138.40
2023-03-10T06:16:59.428Z,120.20
2023-03-10T06:19:27.997Z,156.40
2023-03-10T06:21:56.334Z,105.90
2023-03-10T06:24:26.026Z,114.43
2023-03-10T06:26:54.405Z,129.23
2023-03-10T06:29:22.767Z,118.90
2023-03-10T06:31:51.185Z,114.20
2023-03-10T06:34:19.734Z,99.73
2023-03-10T06:36:48.049Z,112.90
2023-03-10T06:39:16.414Z,110.10
2023-03-10T06:41:46.340Z,163.93
2023-03-10T06:44:19.144Z,94.27
2023-03-10T06:46:48.182Z,111.10
2023-03-10T06:49:16.708Z,130.60
2023-03-10T06:51:45.097Z,98.57
2023-03-10T06:54:13.516Z,82.47
2023-03-10T06:56:42.047Z,96.80
2023-03-10T06:59:11.790Z,101.37
2023-03-10T07:01:40.232Z,91.33
2023-03-10T07:04:09.060Z,102.27
2023-03-10T07:06:37.672Z,113.67
2023-03-10T07:09:06.951Z,93.10
2023-03-10T07:11:35.354Z,108.67
2023-03-10T07:14:04.815Z,107.30
2023-03-10T07:16:34.773Z,134.87
2023-03-10T07:19:03.307Z,102.57
2023-03-10T07:21:32.157Z,100.33
2023-03-10T07:24:00.618Z,111.60
2023-03-10T07:26:29.319Z,112.60
2023-03-10T07:28:57.695Z,93.80
2023-03-10T07:31:26.321Z,99.10
2023-03-10T07:33:56.310Z,116.70
2023-03-10T07:36:25.037Z,153.17
2023-03-10T07:38:53.456Z,97.30
2023-03-10T07:41:22.995Z,119.87
2023-03-10T07:43:55.238Z,115.50
2023-03-10T07:46:24.134Z,114.50
2023-03-10T07:48:53.838Z,126.40
2023-03-10T07:51:23.737Z,126.20
2023-03-10T07:53:52.245Z,105.53
2023-03-10T07:56:20.588Z,124.90
2023-03-10T07:58:49.190Z,92.67
2023-03-10T08:01:21.666Z,106.47
2023-03-10T08:03:51.137Z,112.93
2023-03-10T08:06:22.049Z,113.23
2023-03-10T08:08:52.625Z,114.37
2023-03-10T08:11:21.654Z,103.33
2023-03-10T08:13:50.730Z,91.53
2023-03-10T08:16:24.803Z,120.73
2023-03-10T08:18:54.965Z,96.03
2023-03-10T08:21:23.382Z,93.30
2023-03-10T08:23:53.230Z,83.77
2023-03-10T08:26:23.526Z,66.67
2023-03-10T08:28:51.901Z,67.30
2023-03-10T08:31:23.129Z,103.63
2023-03-10T08:33:52.009Z,62.43
2023-03-10T08:36:24.047Z,83.57
2023-03-10T08:38:55.972Z,89.13
2023-03-10T08:41:31.261Z,81.90
2023-03-10T08:44:00.750Z,79.57
2023-03-10T08:46:31.989Z,74.20
2023-03-10T08:49:00.880Z,76.50
2023-03-10T08:51:30.035Z,72.27
2023-03-10T08:54:00.269Z,93.00
2023-03-10T08:56:29.334Z,89.17
2023-03-10T08:58:59.281Z,74.13
2023-03-10T09:01:31.302Z,92.10
2023-03-10T09:04:00.517Z,94.33
2023-03-10T09:06:30.504Z,92.73
2023-03-10T09:09:01.219Z,88.10
2023-03-10T09:11:33.940Z,104.13
2023-03-10T09:14:03.427Z,87.40
2023-03-10T09:16:32.191Z,91.57
2023-03-10T09:19:01.266Z,101.93
2023-03-10T09:21:33.584Z,72.33
2023-03-10T09:24:05.273Z,59.37
2023-03-10T09:26:34.575Z,49.33
2023-03-10T09:29:02.976Z,68.00
2023-03-10T09:31:35.106Z,48.93
2023-03-10T09:34:04.809Z,63.83
2023-03-10T09:36:34.007Z,37.93
2023-03-10T09:39:04.081Z,43.80
2023-03-10T09:42:02.549Z,70.53
2023-03-10T09:44:42.705Z,35.93
2023-03-10T09:47:30.153Z,38.80
2023-03-10T09:50:19.974Z,30.70
2023-03-10T09:52:56.515Z,22.00
2023-03-10T09:55:34.588Z,22.63
2023-03-10T09:58:04.356Z,7.97
2023-03-10T10:00:39.960Z,9.67
2023-03-10T10:03:18.431Z,16.80
2023-03-10T10:05:49.063Z,11.13
2023-03-10T10:08:27.299Z,11.00
2023-03-10T10:11:01.382Z,15.80
2023-03-10T10:13:31.707Z,15.13
2023-03-10T10:16:28.120Z,13.60
2023-03-10T10:19:05.251Z,19.20
2023-03-10T10:21:44.170Z,9.50
2023-03-10T10:24:14.678Z,15.37
2023-03-10T10:26:44.416Z,15.63
2023-03-10T10:29:18.451Z,10.00
2023-03-10T10:32:07.034Z,13.73
2023-03-10T10:34:37.168Z,16.40
2023-03-10T10:37:28.056Z,21.07
2023-03-10T10:39:58.770Z,13.67
2023-03-10T10:42:31.161Z,17.67
2023-03-10T10:45:03.270Z,16.80
2023-03-10T10:47:35.061Z,17.47
2023-03-10T10:50:22.846Z,17.13
2023-03-10T10:52:54.785Z,32.07
2023-03-10T10:55:31.787Z,48.93
2023-03-10T10:58:03.951Z,51.10
2023-03-10T11:00:35.242Z,72.17
2023-03-10T11:03:19.266Z,59.53
2023-03-10T11:05:47.700Z,49.03
2023-03-10T11:08:29.278Z,58.73
2023-03-10T11:11:04.797Z,50.80
2023-03-10T11:13:46.371Z,50.47
2023-03-10T11:16:23.206Z,50.83
2023-03-10T11:18:58.658Z,47.40
2023-03-10T11:21:31.673Z,63.77
2023-03-10T11:24:13.161Z,54.77
2023-03-10T11:26:52.945Z,35.97
2023-03-10T11:29:39.626Z,44.70
2023-03-10T11:32:22.134Z,42.87
2023-03-10T11:34:54.017Z,50.73
2023-03-10T11:37:32.118Z,31.53
2023-03-10T11:40:20.021Z,32.07
2023-03-10T11:42:55.722Z,23.60
2023-03-10T11:45:35.449Z,19.73
2023-03-10T11:48:22.942Z,22.57
2023-03-10T11:50:53.937Z,16.30
2023-03-10T11:53:35.902Z,28.03
2023-03-10T11:56:06.995Z,16.43
2023-03-10T11:58:45.077Z,23.87
2023-03-10T12:01:19.544Z,19.83
2023-03-10T12:03:59.754Z,15.23
2023-03-10T12:06:38.742Z,13.70
2023-03-10T12:09:09.083Z,15.90
2023-03-10T12:11:37.747Z,18.80
2023-03-10T12:14:06.692Z,13.60
2023-03-10T12:16:41.495Z,18.00
2023-03-10T12:19:10.072Z,24.77
2023-03-10T12:21:38.551Z,14.93
2023-03-10T12:24:27.343Z,15.60
2023-03-10T12:27:05.986Z,17.77
2023-03-10T12:29:38.981Z,24.27
2023-03-10T12:32:43.086Z,31.63
2023-03-10T12:35:41.619Z,25.53
2023-03-10T12:38:35.667Z,20.23
2023-03-10T12:41:04.797Z,16.27
2023-03-10T12:43:55.005Z,16.03
2023-03-10T12:46:40.107Z,13.87
2023-03-10T12:49:23.537Z,11.70
2023-03-10T12:51:57.089Z,14.07
2023-03-10T12:54:54.498Z,13.37
2023-03-10T12:57:30.981Z,13.40
2023-03-10T13:00:06.721Z,12.17
2023-03-10T13:02:48.821Z,11.40
2023-03-10T13:05:25.745Z,10.80
2023-03-10T13:07:59.456Z,9.53
2023-03-10T13:10:32.044Z,7.60
2023-03-10T13:13:05.516Z,7.83
2023-03-10T13:15:36.307Z,12.13
2023-03-10T13:18:17.197Z,7.90
2023-03-10T13:20:47.518Z,6.03
2023-03-10T13:23:23.960Z,4.30
2023-03-10T13:25:54.834Z,4.73
2023-03-10T13:28:23.445Z,6.00
2023-03-10T13:30:52.035Z,5.50
2023-03-10T13:33:25.862Z,6.50
2023-03-10T13:35:56.102Z,6.10
2023-03-10T13:38:25.477Z,10.13
2023-03-10T13:41:03.245Z,8.00
2023-03-10T13:43:38.179Z,8.40
2023-03-10T13:46:15.126Z,8.70
2023-03-10T13:48:44.587Z,7.70
2023-03-10T13:51:24.378Z,7.20
2023-03-10T13:53:58.027Z,7.30
2023-03-10T13:56:31.158Z,8.50
2023-03-10T13:59:01.977Z,6.80
2023-03-10T14:01:35.410Z,8.83
2023-03-10T14:04:08.873Z,10.80
2023-03-10T14:06:39.489Z,10.10
2023-03-10T14:09:17.566Z,16.90
2023-03-10T14:11:48.060Z,13.30
2023-03-10T14:14:29.520Z,18.27
2023-03-10T14:17:00.742Z,14.37
2023-03-10T14:19:53.245Z,18.20
2023-03-10T14:22:43.401Z,16.87
2023-03-10T14:25:19.340Z,15.30
2023-03-10T14:27:53.601Z,18.53
2023-03-10T14:30:27.548Z,21.43
2023-03-10T14:32:57.346Z,25.63
2023-03-10T14:35:28.278Z,26.33
2023-03-10T14:37:58.142Z,31.03
2023-03-10T14:40:27.306Z,22.43
2023-03-10T14:42:58.900Z,20.80
2023-03-10T14:45:30.707Z,17.70
2023-03-10T14:48:02.534Z,15.07
2023-03-10T14:50:31.727Z,14.73
2023-03-10T14:53:01.598Z,16.43
2023-03-10T14:55:30.764Z,18.03
2023-03-10T14:58:04.977Z,20.03
2023-03-10T15:00:34.118Z,18.50
2023-03-10T15:03:05.320Z,12.17
2023-03-10T15:05:47.739Z,15.87
2023-03-10T15:08:19.618Z,15.77
2023-03-10T15:10:51.650Z,13.43
2023-03-10T15:13:23.695Z,12.50
2023-03-10T15:15:53.251Z,21.37
2023-03-10T15:18:26.938Z,17.60
2023-03-10T15:20:58.979Z,20.30
2023-03-10T15:23:30.146Z,16.53
2023-03-10T15:25:59.545Z,15.83
2023-03-10T15:28:27.976Z,14.27
2023-03-10T15:30:56.458Z,17.57
2023-03-10T15:33:24.829Z,12.00
2023-03-10T15:35:53.490Z,13.67
2023-03-10T15:38:22.494Z,19.63
2023-03-10T15:40:52.352Z,22.13
2023-03-10T15:43:20.757Z,19.73
2023-03-10T15:45:50.330Z,13.23
2023-03-10T15:48:19.148Z,16.70
2023-03-10T15:50:48.030Z,13.63
2023-03-10T15:53:16.640Z,16.30
2023-03-10T15:55:45.152Z,17.53
2023-03-10T15:58:14.962Z,18.47
2023-03-10T16:00:44.019Z,17.23
2023-03-10T16:03:17.735Z,17.30
2023-03-10T16:05:49.842Z,21.97
2023-03-10T16:08:19.232Z,21.43
2023-03-10T16:10:53.317Z,9.57
2023-03-10T16:13:23.868Z,9.37
2023-03-10T16:15:53.340Z,9.33
2023-03-10T16:18:21.743Z,3.07
2023-03-10T16:20:58.534Z,3.80
2023-03-10T16:23:27.548Z,2.70
2023-03-10T16:26:11.613Z,5.20
2023-03-10T16:28:44.556Z,6.27
2023-03-10T16:31:15.014Z,1.70
2023-03-10T16:33:44.410Z,3.03
2023-03-10T16:36:17.092Z,3.07
2023-03-10T16:38:45.966Z,3.87
2023-03-10T16:41:15.072Z,4.07
2023-03-10T16:43:44.932Z,2.53
2023-03-10T16:46:19.909Z,1.93
2023-03-10T16:48:49.538Z,5.23
2023-03-10T16:51:28.637Z,5.90
2023-03-10T16:54:00.224Z,4.30
2023-03-10T16:56:31.307Z,3.33
2023-03-10T16:59:01.158Z,7.20
2023-03-10T17:01:29.743Z,6.63
2023-03-10T17:03:58.821Z,5.03
2023-03-10T17:06:30.419Z,2.97
2023-03-10T17:09:00.054Z,5.23
2023-03-10T17:11:30.996Z,4.60
2023-03-10T17:14:03.149Z,4.37
2023-03-10T17:16:34.054Z,7.23
2023-03-10T17:19:05.557Z,4.97
2023-03-10T17:21:39.865Z,6.27
2023-03-10T17:24:10.043Z,3.63
2023-03-10T17:26:38.659Z,8.03
2023-03-10T17:29:09.719Z,3.33
2023-03-10T17:31:38.968Z,3.10
2023-03-10T17:34:12.412Z,5.03
2023-03-10T17:36:41.527Z,7.80
2023-03-10T17:39:10.302Z,10.33
2023-03-10T17:41:38.823Z,15.40
2023-03-10T17:44:08.521Z,3.83
2023-03-10T17:46:37.435Z,2.47
2023-03-10T17:49:05.915Z,5.43
2023-03-10T17:51:34.373Z,2.70
2023-03-10T17:54:03.221Z,4.53
2023-03-10T17:56:31.884Z,3.20
2023-03-10T17:59:00.636Z,5.30
2023-03-10T18:01:33.516Z,11.00
2023-03-10T18:04:03.402Z,4.47
2023-03-10T18:06:34.415Z,7.30
2023-03-10T18:09:07.552Z,6.00
2023-03-10T18:11:36.726Z,8.27
2023-03-10T18:14:05.267Z,6.80
2023-03-10T18:16:39.402Z,14.53
2023-03-10T18:19:10.878Z,11.30
2023-03-10T18:21:40.013Z,4.30
2023-03-10T18:24:08.868Z,9.43
2023-03-10T18:26:38.122Z,7.60
2023-03-10T18:29:06.688Z,13.17
2023-03-10T18:31:37.076Z,4.70
2023-03-10T18:34:06.349Z,6.10
2023-03-10T18:36:35.088Z,5.87
2023-03-10T18:39:04.941Z,2.60
2023-03-10T18:41:33.459Z,4.67
2023-03-10T18:44:02.252Z,5.90
2023-03-10T18:46:30.831Z,8.93
2023-03-10T18:49:00.993Z,7.10
2023-03-10T18:51:29.922Z,5.00
2023-03-10T18:53:58.589Z,7.13
2023-03-10T18:56:29.256Z,5.10
2023-03-10T18:58:57.841Z,8.23
2023-03-10T19:01:27.033Z,8.83
2023-03-10T19:03:55.668Z,6.83
2023-03-10T19:06:31.064Z,7.93
2023-03-10T19:08:59.820Z,8.80
2023-03-10T19:11:35.238Z,9.13
2023-03-10T19:14:05.404Z,9.87
2023-03-10T19:16:35.620Z,9.53
2023-03-10T19:19:04.260Z,15.27
2023-03-10T19:21:35.848Z,13.03
2023-03-10T19:24:04.450Z,8.03
2023-03-10T19:26:33.495Z,9.93
2023-03-10T19:29:02.271Z,12.93
2023-03-10T19:31:30.945Z,11.83
2023-03-10T19:33:59.697Z,10.17
2023-03-10T19:36:29.534Z,4.87
2023-03-10T19:38:59.678Z,6.47
2023-03-10T19:41:28.184Z,9.60
2023-03-10T19:43:56.701Z,10.60
2023-03-10T19:46:25.237Z,7.93
2023-03-10T19:48:53.743Z,7.10
2023-03-10T19:51:25.471Z,13.47
2023-03-10T19:53:56.375Z,4.90
2023-03-10T19:56:26.849Z,11.00
2023-03-10T19:58:55.314Z,8.97
2023-03-10T20:01:26.694Z,7.97
2023-03-10T20:03:58.816Z,10.77
2023-03-10T20:06:27.499Z,6.63
2023-03-10T20:08:57.757Z,12.23
2023-03-10T20:11:28.009Z,12.00
2023-03-10T20:13:56.741Z,8.77
2023-03-10T20:16:27.872Z,12.20
2023-03-10T20:18:56.910Z,8.77
2023-03-10T20:21:25.630Z,4.43
2023-03-10T20:23:56.209Z,6.03
2023-03-10T20:26:25.330Z,9.07
2023-03-10T20:28:55.298Z,7.83
2023-03-10T20:31:24.992Z,11.80
2023-03-10T20:33:53.940Z,6.60
2023-03-10T20:36:22.444Z,10.90
2023-03-10T20:38:50.927Z,10.30
2023-03-10T20:41:20.862Z,11.20
2023-03-10T20:43:50.286Z,6.83
2023-03-10T20:46:22.619Z,15.77
2023-03-10T20:48:51.750Z,6.07
2023-03-10T20:51:22.703Z,9.80
2023-03-10T20:53:51.905Z,14.77
2023-03-10T20:56:20.619Z,14.03
2023-03-10T20:58:49.356Z,15.30
2023-03-10T21:01:22.287Z,10.23
2023-03-10T21:03:54.775Z,11.37
2023-03-10T21:06:24.017Z,9.60
2023-03-10T21:08:52.952Z,8.50
2023-03-10T21:11:21.881Z,6.50
2023-03-10T21:13:50.929Z,10.97
2023-03-10T21:16:21.467Z,7.73
2023-03-10T21:18:50.211Z,10.33
2023-03-10T21:21:18.941Z,5.13
2023-03-10T21:23:48.072Z,8.90
2023-03-10T21:26:20.181Z,14.90
2023-03-10T21:28:49.496Z,13.53
2023-03-10T21:31:18.391Z,8.47
2023-03-10T21:33:50.262Z,7.97
2023-03-10T21:36:21.529Z,9.60
2023-03-10T21:38:52.719Z,4.30
2023-03-10T21:41:25.104Z,12.03
2023-03-10T21:43:55.360Z,9.40
2023-03-10T21:46:24.628Z,6.23
2023-03-10T21:48:54.608Z,6.43
2023-03-10T21:51:26.460Z,6.47
2023-03-10T21:53:57.348Z,8.17
2023-03-10T21:56:28.826Z,5.60
2023-03-10T21:58:58.628Z,9.53
2023-03-10T22:01:28.755Z,11.43
2023-03-10T22:03:58.889Z,9.80
2023-03-10T22:06:27.497Z,5.80
2023-03-10T22:08:56.403Z,5.60
2023-03-10T22:11:24.833Z,10.67
2023-03-10T22:13:55.102Z,6.97
2023-03-10T22:16:24.006Z,6.30
2023-03-10T22:18:52.956Z,8.03
2023-03-10T22:21:22.732Z,7.33
2023-03-10T22:23:52.210Z,6.63
2023-03-10T22:26:20.713Z,6.63
2023-03-10T22:28:49.530Z,10.47
2023-03-10T22:31:18.362Z,9.00
2023-03-10T22:33:46.904Z,7.57
2023-03-10T22:36:15.457Z,4.00
2023-03-10T22:38:45.387Z,5.43
2023-03-10T22:41:14.237Z,6.13
2023-03-10T22:43:43.149Z,5.67
2023-03-10T22:46:13.795Z,9.13
2023-03-10T22:48:43.680Z,10.03
2023-03-10T22:51:15.670Z,9.20
2023-03-10T22:53:46.913Z,4.13
2023-03-10T22:56:16.252Z,3.40
2023-03-10T22:58:44.739Z,10.33
2023-03-10T23:01:13.279Z,12.37
2023-03-10T23:03:42.323Z,8.63
2023-03-10T23:06:14.024Z,7.03
2023-03-10T23:08:46.463Z,6.57
2023-03-10T23:11:17.488Z,6.57
2023-03-10T23:13:45.839Z,7.77
2023-03-10T23:16:14.596Z,7.40
2023-03-10T23:18:43.288Z,6.30
2023-03-10T23:21:11.923Z,5.17
2023-03-10T23:23:43.745Z,5.07
2023-03-10T23:26:13.678Z,4.67
2023-03-10T23:28:42.738Z,3.67
2023-03-10T23:31:15.643Z,6.83
2023-03-10T23:33:44.880Z,8.83
2023-03-10T23:36:14.110Z,6.40
2023-03-10T23:38:42.878Z,17.20
2023-03-10T23:41:11.342Z,7.40
2023-03-10T23:43:41.472Z,8.30
2023-03-10T23:46:10.370Z,7.40
2023-03-10T23:48:39.094Z,5.45
2023-03-10T23:51:14.255Z,7.73
2023-03-10T23:53:43.246Z,8.07
2023-03-10T23:56:12.399Z,10.23
2023-03-10T23:58:42.432Z,13.97
